sensor_id;sensor_type;location;lat;lon;timestamp;P1;durP1;ratioP1;P2;durP2;ratioP2
23206;SDS011;11773;52.570;13.052;2022-12-07T00:01:48;1.33;;;1.23;;
23206;SDS011;11773;52.570;13.052;2022-12-07T00:04:18;1.37;;;1.27;;
23206;SDS011;11773;52.570;13.052;2022-12-07T00:06:50;1.53;;;1.33;;
23206;SDS011;11773;52.570;13.052;2022-12-07T00:09:20;1.33;;;1.23;;
23206;SDS011;11773;52.570;13.052;2022-12-07T00:11:50;1.40;;;1.30;;
23206;SDS011;11773;52.570;13.052;2022-12-07T00:14:20;1.53;;;1.43;;
23206;SDS011;11773;52.570;13.052;2022-12-07T00:16:50;1.50;;;1.40;;
23206;SDS011;11773;52.570;13.052;2022-12-07T00:19:20;1.00;;;1.00;;
23206;SDS011;11773;52.570;13.052;2022-12-07T00:21:50;1.00;;;1.00;;
23206;SDS011;11773;52.570;13.052;2022-12-07T00:24:19;0.90;;;0.90;;
23206;SDS011;11773;52.570;13.052;2022-12-07T00:26:48;1.23;;;1.13;;
23206;SDS011;11773;52.570;13.052;2022-12-07T00:29:19;1.10;;;1.00;;
23206;SDS011;11773;52.570;13.052;2022-12-07T00:31:50;1.33;;;1.17;;
23206;SDS011;11773;52.570;13.052;2022-12-07T00:34:20;1.23;;;1.13;;
23206;SDS011;11773;52.570;13.052;2022-12-07T00:36:50;1.20;;;1.10;;
23206;SDS011;11773;52.570;13.052;2022-12-07T00:39:19;1.17;;;1.10;;
23206;SDS011;11773;52.570;13.052;2022-12-07T00:41:49;1.20;;;1.10;;
23206;SDS011;11773;52.570;13.052;2022-12-07T00:44:18;1.17;;;1.07;;
23206;SDS011;11773;52.570;13.052;2022-12-07T00:46:48;1.00;;;1.00;;
23206;SDS011;11773;52.570;13.052;2022-12-07T00:49:17;0.93;;;0.93;;
23206;SDS011;11773;52.570;13.052;2022-12-07T00:51:49;1.40;;;1.30;;
23206;SDS011;11773;52.570;13.052;2022-12-07T00:54:19;1.13;;;1.03;;
23206;SDS011;11773;52.570;13.052;2022-12-07T00:56:48;1.10;;;1.03;;
23206;SDS011;11773;52.570;13.052;2022-12-07T00:59:18;0.83;;;0.83;;
23206;SDS011;11773;52.570;13.052;2022-12-07T01:01:47;1.10;;;1.10;;
23206;SDS011;11773;52.570;13.052;2022-12-07T01:04:17;1.00;;;0.80;;
23206;SDS011;11773;52.570;13.052;2022-12-07T01:06:46;0.90;;;0.90;;
23206;SDS011;11773;52.570;13.052;2022-12-07T01:09:16;0.90;;;0.90;;
23206;SDS011;11773;52.570;13.052;2022-12-07T01:11:46;0.83;;;0.83;;
23206;SDS011;11773;52.570;13.052;2022-12-07T01:14:15;1.03;;;1.00;;
23206;SDS011;11773;52.570;13.052;2022-12-07T01:16:46;1.10;;;1.00;;
23206;SDS011;11773;52.570;13.052;2022-12-07T01:19:15;1.00;;;1.00;;
23206;SDS011;11773;52.570;13.052;2022-12-07T01:21:45;1.30;;;1.20;;
23206;SDS011;11773;52.570;13.052;2022-12-07T01:24:14;1.30;;;1.20;;
23206;SDS011;11773;52.570;13.052;2022-12-07T01:26:44;0.97;;;0.97;;
23206;SDS011;11773;52.570;13.052;2022-12-07T01:29:13;0.73;;;0.73;;
23206;SDS011;11773;52.570;13.052;2022-12-07T01:31:42;1.00;;;0.97;;
23206;SDS011;11773;52.570;13.052;2022-12-07T01:34:12;0.83;;;0.83;;
23206;SDS011;11773;52.570;13.052;2022-12-07T01:36:41;1.00;;;1.00;;
23206;SDS011;11773;52.570;13.052;2022-12-07T01:39:11;0.77;;;0.77;;
23206;SDS011;11773;52.570;13.052;2022-12-07T01:41:40;1.00;;;1.00;;
23206;SDS011;11773;52.570;13.052;2022-12-07T01:47:00;0.80;;;0.80;;
23206;SDS011;11773;52.570;13.052;2022-12-07T01:49:35;0.80;;;0.80;;
23206;SDS011;11773;52.570;13.052;2022-12-07T01:52:25;0.67;;;0.67;;
23206;SDS011;11773;52.570;13.052;2022-12-07T01:54:59;0.60;;;0.60;;
23206;SDS011;11773;52.570;13.052;2022-12-07T01:57:35;0.90;;;0.90;;
23206;SDS011;11773;52.570;13.052;2022-12-07T02:00:09;0.73;;;0.73;;
23206;SDS011;11773;52.570;13.052;2022-12-07T02:02:44;0.67;;;0.67;;
23206;SDS011;11773;52.570;13.052;2022-12-07T02:05:38;0.90;;;0.90;;
23206;SDS011;11773;52.570;13.052;2022-12-07T02:08:10;0.77;;;0.77;;
23206;SDS011;11773;52.570;13.052;2022-12-07T02:10:41;0.60;;;0.60;;
23206;SDS011;11773;52.570;13.052;2022-12-07T02:13:19;0.60;;;0.60;;
23206;SDS011;11773;52.570;13.052;2022-12-07T02:21:46;1.03;;;0.93;;
23206;SDS011;11773;52.570;13.052;2022-12-07T02:24:25;1.10;;;1.00;;
23206;SDS011;11773;52.570;13.052;2022-12-07T02:27:27;1.10;;;1.00;;
23206;SDS011;11773;52.570;13.052;2022-12-07T02:30:08;0.90;;;0.90;;
23206;SDS011;11773;52.570;13.052;2022-12-07T02:35:40;0.80;;;0.80;;
23206;SDS011;11773;52.570;13.052;2022-12-07T02:38:17;1.03;;;0.90;;
23206;SDS011;11773;52.570;13.052;2022-12-07T02:41:05;1.10;;;1.00;;
23206;SDS011;11773;52.570;13.052;2022-12-07T02:43:50;1.20;;;1.10;;
23206;SDS011;11773;52.570;13.052;2022-12-07T02:46:30;1.40;;;1.30;;
23206;SDS011;11773;52.570;13.052;2022-12-07T02:49:02;1.07;;;1.07;;
23206;SDS011;11773;52.570;13.052;2022-12-07T02:51:38;0.77;;;0.77;;
23206;SDS011;11773;52.570;13.052;2022-12-07T02:54:16;1.10;;;1.00;;
23206;SDS011;11773;52.570;13.052;2022-12-07T02:56:48;1.00;;;0.90;;
23206;SDS011;11773;52.570;13.052;2022-12-07T03:05:49;1.07;;;0.97;;
23206;SDS011;11773;52.570;13.052;2022-12-07T03:08:37;1.67;;;1.30;;
23206;SDS011;11773;52.570;13.052;2022-12-07T03:11:17;1.37;;;1.27;;
23206;SDS011;11773;52.570;13.052;2022-12-07T03:13:59;1.33;;;1.23;;
23206;SDS011;11773;52.570;13.052;2022-12-07T03:16:36;1.70;;;1.60;;
23206;SDS011;11773;52.570;13.052;2022-12-07T03:19:10;1.70;;;1.60;;
23206;SDS011;11773;52.570;13.052;2022-12-07T03:21:44;1.77;;;1.53;;
23206;SDS011;11773;52.570;13.052;2022-12-07T03:24:28;2.00;;;1.43;;
23206;SDS011;11773;52.570;13.052;2022-12-07T03:27:24;1.37;;;1.27;;
23206;SDS011;11773;52.570;13.052;2022-12-07T03:30:09;1.60;;;1.50;;
23206;SDS011;11773;52.570;13.052;2022-12-07T03:32:48;2.33;;;2.10;;
23206;SDS011;11773;52.570;13.052;2022-12-07T03:38:21;2.10;;;1.83;;
23206;SDS011;11773;52.570;13.052;2022-12-07T03:41:00;1.95;;;1.62;;
23206;SDS011;11773;52.570;13.052;2022-12-07T03:43:37;1.50;;;1.40;;
23206;SDS011;11773;52.570;13.052;2022-12-07T03:50:00;2.03;;;1.53;;
23206;SDS011;11773;52.570;13.052;2022-12-07T03:51:45;1.33;;;1.20;;
23206;SDS011;11773;52.570;13.052;2022-12-07T03:54:27;2.10;;;1.90;;
23206;SDS011;11773;52.570;13.052;2022-12-07T03:57:05;2.40;;;2.20;;
23206;SDS011;11773;52.570;13.052;2022-12-07T03:59:37;2.23;;;2.00;;
23206;SDS011;11773;52.570;13.052;2022-12-07T04:02:09;2.23;;;2.03;;
23206;SDS011;11773;52.570;13.052;2022-12-07T04:04:41;1.97;;;1.77;;
23206;SDS011;11773;52.570;13.052;2022-12-07T04:07:11;2.00;;;1.70;;
23206;SDS011;11773;52.570;13.052;2022-12-07T04:09:41;3.37;;;2.53;;
23206;SDS011;11773;52.570;13.052;2022-12-07T04:12:10;2.97;;;2.67;;
23206;SDS011;11773;52.570;13.052;2022-12-07T04:14:40;2.53;;;2.20;;
23206;SDS011;11773;52.570;13.052;2022-12-07T04:17:09;4.47;;;3.77;;
23206;SDS011;11773;52.570;13.052;2022-12-07T04:19:39;3.10;;;2.73;;
23206;SDS011;11773;52.570;13.052;2022-12-07T04:22:09;2.77;;;2.57;;
23206;SDS011;11773;52.570;13.052;2022-12-07T04:24:38;2.43;;;2.23;;
23206;SDS011;11773;52.570;13.052;2022-12-07T04:27:08;2.60;;;2.40;;
23206;SDS011;11773;52.570;13.052;2022-12-07T04:29:37;2.43;;;2.23;;
23206;SDS011;11773;52.570;13.052;2022-12-07T04:32:07;3.33;;;2.80;;
23206;SDS011;11773;52.570;13.052;2022-12-07T04:34:36;3.70;;;3.23;;
23206;SDS011;11773;52.570;13.052;2022-12-07T04:37:06;3.20;;;2.90;;
23206;SDS011;11773;52.570;13.052;2022-12-07T04:39:35;2.90;;;2.60;;
23206;SDS011;11773;52.570;13.052;2022-12-07T04:42:05;3.00;;;2.73;;
23206;SDS011;11773;52.570;13.052;2022-12-07T04:44:34;2.90;;;2.60;;
23206;SDS011;11773;52.570;13.052;2022-12-07T04:47:04;2.47;;;2.27;;
23206;SDS011;11773;52.570;13.052;2022-12-07T04:49:33;2.73;;;2.47;;
23206;SDS011;11773;52.570;13.052;2022-12-07T04:52:03;3.00;;;2.57;;
23206;SDS011;11773;52.570;13.052;2022-12-07T04:54:32;2.27;;;2.07;;
23206;SDS011;11773;52.570;13.052;2022-12-07T04:57:02;2.63;;;2.43;;
23206;SDS011;11773;52.570;13.052;2022-12-07T04:59:31;3.00;;;2.70;;
23206;SDS011;11773;52.570;13.052;2022-12-07T05:02:03;2.67;;;2.43;;
23206;SDS011;11773;52.570;13.052;2022-12-07T05:04:33;3.47;;;3.10;;
23206;SDS011;11773;52.570;13.052;2022-12-07T05:07:02;3.10;;;2.80;;
23206;SDS011;11773;52.570;13.052;2022-12-07T05:09:32;3.50;;;2.73;;
23206;SDS011;11773;52.570;13.052;2022-12-07T05:12:01;2.57;;;2.20;;
23206;SDS011;11773;52.570;13.052;2022-12-07T05:14:31;2.63;;;2.43;;
23206;SDS011;11773;52.570;13.052;2022-12-07T05:17:00;2.90;;;2.27;;
23206;SDS011;11773;52.570;13.052;2022-12-07T05:19:30;3.07;;;2.60;;
23206;SDS011;11773;52.570;13.052;2022-12-07T05:22:00;3.00;;;2.70;;
23206;SDS011;11773;52.570;13.052;2022-12-07T05:24:29;2.87;;;2.57;;
23206;SDS011;11773;52.570;13.052;2022-12-07T05:26:59;3.83;;;3.23;;
23206;SDS011;11773;52.570;13.052;2022-12-07T05:29:28;2.67;;;2.47;;
23206;SDS011;11773;52.570;13.052;2022-12-07T05:31:58;2.90;;;2.60;;
23206;SDS011;11773;52.570;13.052;2022-12-07T05:34:27;2.43;;;2.23;;
23206;SDS011;11773;52.570;13.052;2022-12-07T05:36:57;3.43;;;3.07;;
23206;SDS011;11773;52.570;13.052;2022-12-07T05:39:26;4.03;;;3.40;;
23206;SDS011;11773;52.570;13.052;2022-12-07T05:41:56;5.90;;;4.97;;
23206;SDS011;11773;52.570;13.052;2022-12-07T05:44:44;4.47;;;3.63;;
23206;SDS011;11773;52.570;13.052;2022-12-07T05:47:14;3.77;;;3.30;;
23206;SDS011;11773;52.570;13.052;2022-12-07T05:49:44;4.17;;;3.10;;
23206;SDS011;11773;52.570;13.052;2022-12-07T05:52:14;3.60;;;3.00;;
23206;SDS011;11773;52.570;13.052;2022-12-07T05:54:44;2.50;;;2.20;;
23206;SDS011;11773;52.570;13.052;2022-12-07T05:57:13;3.00;;;2.60;;
23206;SDS011;11773;52.570;13.052;2022-12-07T05:59:43;3.80;;;3.40;;
23206;SDS011;11773;52.570;13.052;2022-12-07T06:02:13;3.80;;;3.40;;
23206;SDS011;11773;52.570;13.052;2022-12-07T06:04:45;4.27;;;3.73;;
23206;SDS011;11773;52.570;13.052;2022-12-07T06:07:15;3.60;;;3.17;;
23206;SDS011;11773;52.570;13.052;2022-12-07T06:09:45;4.20;;;3.40;;
23206;SDS011;11773;52.570;13.052;2022-12-07T06:12:14;3.83;;;3.00;;
23206;SDS011;11773;52.570;13.052;2022-12-07T06:15:04;3.97;;;3.10;;
23206;SDS011;11773;52.570;13.052;2022-12-07T06:17:34;3.40;;;2.90;;
23206;SDS011;11773;52.570;13.052;2022-12-07T06:20:05;2.50;;;2.30;;
23206;SDS011;11773;52.570;13.052;2022-12-07T06:22:35;2.77;;;2.50;;
23206;SDS011;11773;52.570;13.052;2022-12-07T06:25:04;2.73;;;2.40;;
23206;SDS011;11773;52.570;13.052;2022-12-07T06:27:35;2.70;;;2.30;;
23206;SDS011;11773;52.570;13.052;2022-12-07T06:30:05;3.40;;;2.77;;
23206;SDS011;11773;52.570;13.052;2022-12-07T06:32:36;3.20;;;2.80;;
23206;SDS011;11773;52.570;13.052;2022-12-07T06:35:06;2.63;;;2.30;;
23206;SDS011;11773;52.570;13.052;2022-12-07T06:37:36;3.00;;;2.47;;
23206;SDS011;11773;52.570;13.052;2022-12-07T06:40:05;2.23;;;2.03;;
23206;SDS011;11773;52.570;13.052;2022-12-07T06:42:36;2.10;;;1.90;;
23206;SDS011;11773;52.570;13.052;2022-12-07T06:45:05;2.80;;;2.20;;
23206;SDS011;11773;52.570;13.052;2022-12-07T06:47:35;4.00;;;3.30;;
23206;SDS011;11773;52.570;13.052;2022-12-07T06:50:06;3.37;;;2.70;;
23206;SDS011;11773;52.570;13.052;2022-12-07T06:52:36;3.43;;;2.53;;
23206;SDS011;11773;52.570;13.052;2022-12-07T06:55:06;2.63;;;2.37;;
23206;SDS011;11773;52.570;13.052;2022-12-07T06:57:35;2.60;;;2.40;;
23206;SDS011;11773;52.570;13.052;2022-12-07T07:00:05;4.07;;;2.90;;
23206;SDS011;11773;52.570;13.052;2022-12-07T07:02:35;4.43;;;3.10;;
23206;SDS011;11773;52.570;13.052;2022-12-07T07:05:05;2.90;;;2.50;;
23206;SDS011;11773;52.570;13.052;2022-12-07T07:07:35;3.50;;;3.00;;
23206;SDS011;11773;52.570;13.052;2022-12-07T07:10:06;3.50;;;3.00;;
23206;SDS011;11773;52.570;13.052;2022-12-07T07:12:36;3.87;;;3.10;;
23206;SDS011;11773;52.570;13.052;2022-12-07T07:15:05;4.13;;;3.07;;
23206;SDS011;11773;52.570;13.052;2022-12-07T07:17:36;2.63;;;2.30;;
23206;SDS011;11773;52.570;13.052;2022-12-07T07:20:05;3.00;;;2.70;;
23206;SDS011;11773;52.570;13.052;2022-12-07T07:22:35;2.80;;;2.30;;
23206;SDS011;11773;52.570;13.052;2022-12-07T07:25:05;2.30;;;2.10;;
23206;SDS011;11773;52.570;13.052;2022-12-07T07:27:35;2.20;;;2.00;;
23206;SDS011;11773;52.570;13.052;2022-12-07T07:30:04;2.20;;;2.00;;
23206;SDS011;11773;52.570;13.052;2022-12-07T07:32:35;3.20;;;2.63;;
23206;SDS011;11773;52.570;13.052;2022-12-07T07:35:05;2.40;;;2.20;;
23206;SDS011;11773;52.570;13.052;2022-12-07T07:37:35;3.83;;;3.43;;
23206;SDS011;11773;52.570;13.052;2022-12-07T07:40:05;3.70;;;2.80;;
23206;SDS011;11773;52.570;13.052;2022-12-07T07:42:35;3.63;;;3.00;;
23206;SDS011;11773;52.570;13.052;2022-12-07T07:45:05;2.57;;;2.30;;
23206;SDS011;11773;52.570;13.052;2022-12-07T07:47:35;2.80;;;2.43;;
23206;SDS011;11773;52.570;13.052;2022-12-07T07:50:05;2.40;;;2.20;;
23206;SDS011;11773;52.570;13.052;2022-12-07T07:52:35;2.27;;;2.00;;
23206;SDS011;11773;52.570;13.052;2022-12-07T07:55:04;2.30;;;2.10;;
23206;SDS011;11773;52.570;13.052;2022-12-07T07:57:36;2.40;;;2.20;;
23206;SDS011;11773;52.570;13.052;2022-12-07T08:00:08;2.30;;;2.10;;
23206;SDS011;11773;52.570;13.052;2022-12-07T08:02:43;1.70;;;1.60;;
23206;SDS011;11773;52.570;13.052;2022-12-07T08:05:13;3.63;;;2.03;;
23206;SDS011;11773;52.570;13.052;2022-12-07T08:07:43;2.13;;;1.70;;
23206;SDS011;11773;52.570;13.052;2022-12-07T08:10:13;1.33;;;1.23;;
23206;SDS011;11773;52.570;13.052;2022-12-07T08:12:43;2.30;;;1.70;;
23206;SDS011;11773;52.570;13.052;2022-12-07T08:15:30;1.60;;;1.50;;
23206;SDS011;11773;52.570;13.052;2022-12-07T08:18:00;2.17;;;1.93;;
23206;SDS011;11773;52.570;13.052;2022-12-07T08:20:30;1.63;;;1.53;;
23206;SDS011;11773;52.570;13.052;2022-12-07T08:23:01;1.37;;;1.27;;
23206;SDS011;11773;52.570;13.052;2022-12-07T08:25:31;1.57;;;1.10;;
23206;SDS011;11773;52.570;13.052;2022-12-07T08:28:01;1.10;;;1.00;;
23206;SDS011;11773;52.570;13.052;2022-12-07T08:30:31;1.23;;;1.00;;
23206;SDS011;11773;52.570;13.052;2022-12-07T08:33:01;1.27;;;1.17;;
23206;SDS011;11773;52.570;13.052;2022-12-07T08:35:32;0.87;;;0.80;;
23206;SDS011;11773;52.570;13.052;2022-12-07T08:38:02;1.10;;;1.00;;
23206;SDS011;11773;52.570;13.052;2022-12-07T08:40:32;1.10;;;0.90;;
23206;SDS011;11773;52.570;13.052;2022-12-07T08:43:02;1.77;;;1.23;;
23206;SDS011;11773;52.570;13.052;2022-12-07T08:45:31;2.10;;;1.23;;
23206;SDS011;11773;52.570;13.052;2022-12-07T08:48:03;0.67;;;0.67;;
23206;SDS011;11773;52.570;13.052;2022-12-07T08:50:39;1.30;;;1.20;;
23206;SDS011;11773;52.570;13.052;2022-12-07T08:53:10;1.13;;;1.03;;
23206;SDS011;11773;52.570;13.052;2022-12-07T08:55:40;1.27;;;1.17;;
23206;SDS011;11773;52.570;13.052;2022-12-07T08:58:10;1.40;;;1.30;;
23206;SDS011;11773;52.570;13.052;2022-12-07T09:00:39;1.07;;;1.07;;
23206;SDS011;11773;52.570;13.052;2022-12-07T09:03:09;1.00;;;1.00;;
23206;SDS011;11773;52.570;13.052;2022-12-07T09:05:38;1.70;;;1.60;;
23206;SDS011;11773;52.570;13.052;2022-12-07T09:08:08;2.60;;;1.27;;
23206;SDS011;11773;52.570;13.052;2022-12-07T09:10:37;1.57;;;1.37;;
23206;SDS011;11773;52.570;13.052;2022-12-07T09:13:07;1.30;;;1.20;;
23206;SDS011;11773;52.570;13.052;2022-12-07T09:15:36;1.50;;;1.40;;
23206;SDS011;11773;52.570;13.052;2022-12-07T09:18:06;1.40;;;1.30;;
23206;SDS011;11773;52.570;13.052;2022-12-07T09:20:35;1.77;;;1.40;;
23206;SDS011;11773;52.570;13.052;2022-12-07T09:23:05;1.33;;;0.90;;
23206;SDS011;11773;52.570;13.052;2022-12-07T09:25:35;1.33;;;1.17;;
23206;SDS011;11773;52.570;13.052;2022-12-07T09:28:05;0.90;;;0.90;;
23206;SDS011;11773;52.570;13.052;2022-12-07T09:30:34;1.30;;;1.20;;
23206;SDS011;11773;52.570;13.052;2022-12-07T09:33:06;0.87;;;0.87;;
23206;SDS011;11773;52.570;13.052;2022-12-07T09:35:35;1.80;;;1.27;;
23206;SDS011;11773;52.570;13.052;2022-12-07T09:38:05;1.10;;;1.00;;
23206;SDS011;11773;52.570;13.052;2022-12-07T09:40:34;1.60;;;0.97;;
23206;SDS011;11773;52.570;13.052;2022-12-07T09:43:03;1.37;;;1.23;;
23206;SDS011;11773;52.570;13.052;2022-12-07T09:45:35;1.53;;;1.20;;
23206;SDS011;11773;52.570;13.052;2022-12-07T09:48:18;1.90;;;1.50;;
23206;SDS011;11773;52.570;13.052;2022-12-07T09:50:51;0.90;;;0.90;;
23206;SDS011;11773;52.570;13.052;2022-12-07T09:53:28;0.90;;;0.90;;
23206;SDS011;11773;52.570;13.052;2022-12-07T09:56:04;1.30;;;1.17;;
23206;SDS011;11773;52.570;13.052;2022-12-07T09:58:34;1.07;;;1.00;;
23206;SDS011;11773;52.570;13.052;2022-12-07T10:04:28;1.20;;;1.10;;
23206;SDS011;11773;52.570;13.052;2022-12-07T10:06:24;1.33;;;1.20;;
23206;SDS011;11773;52.570;13.052;2022-12-07T10:08:53;1.03;;;0.97;;
23206;SDS011;11773;52.570;13.052;2022-12-07T10:11:23;0.70;;;0.70;;
23206;SDS011;11773;52.570;13.052;2022-12-07T10:13:52;0.90;;;0.90;;
23206;SDS011;11773;52.570;13.052;2022-12-07T10:19:20;0.93;;;0.93;;
23206;SDS011;11773;52.570;13.052;2022-12-07T10:24:46;1.37;;;1.27;;
23206;SDS011;11773;52.570;13.052;2022-12-07T10:27:17;2.43;;;1.77;;
23206;SDS011;11773;52.570;13.052;2022-12-07T10:29:53;1.80;;;1.70;;
23206;SDS011;11773;52.570;13.052;2022-12-07T10:32:29;1.43;;;1.33;;
23206;SDS011;11773;52.570;13.052;2022-12-07T10:35:23;1.60;;;1.50;;
23206;SDS011;11773;52.570;13.052;2022-12-07T10:37:50;1.43;;;1.33;;
23206;SDS011;11773;52.570;13.052;2022-12-07T10:40:26;1.20;;;1.10;;
23206;SDS011;11773;52.570;13.052;2022-12-07T10:43:05;1.53;;;1.43;;
23206;SDS011;11773;52.570;13.052;2022-12-07T10:49:02;1.47;;;1.37;;
23206;SDS011;11773;52.570;13.052;2022-12-07T10:51:54;4.27;;;3.40;;
23206;SDS011;11773;52.570;13.052;2022-12-07T10:54:31;7.07;;;5.20;;
23206;SDS011;11773;52.570;13.052;2022-12-07T10:57:05;4.53;;;4.13;;
23206;SDS011;11773;52.570;13.052;2022-12-07T11:05:30;2.40;;;2.20;;
23206;SDS011;11773;52.570;13.052;2022-12-07T11:08:21;2.60;;;2.23;;
23206;SDS011;11773;52.570;13.052;2022-12-07T11:11:26;2.17;;;1.97;;
23206;SDS011;11773;52.570;13.052;2022-12-07T11:16:59;2.10;;;1.90;;
23206;SDS011;11773;52.570;13.052;2022-12-07T11:22:36;2.40;;;2.20;;
23206;SDS011;11773;52.570;13.052;2022-12-07T11:25:34;2.30;;;2.07;;
23206;SDS011;11773;52.570;13.052;2022-12-07T11:28:24;2.53;;;2.30;;
23206;SDS011;11773;52.570;13.052;2022-12-07T11:31:11;2.60;;;2.40;;
23206;SDS011;11773;52.570;13.052;2022-12-07T11:34:00;2.70;;;2.50;;
23206;SDS011;11773;52.570;13.052;2022-12-07T11:36:44;2.37;;;2.17;;
23206;SDS011;11773;52.570;13.052;2022-12-07T11:42:06;2.23;;;2.00;;
23206;SDS011;11773;52.570;13.052;2022-12-07T11:45:02;1.60;;;1.50;;
23206;SDS011;11773;52.570;13.052;2022-12-07T11:47:47;1.73;;;1.40;;
23206;SDS011;11773;52.570;13.052;2022-12-07T11:50:34;1.87;;;1.77;;
23206;SDS011;11773;52.570;13.052;2022-12-07T11:53:24;1.90;;;1.60;;
23206;SDS011;11773;52.570;13.052;2022-12-07T11:55:56;1.80;;;1.70;;
23206;SDS011;11773;52.570;13.052;2022-12-07T12:04:39;2.57;;;2.37;;
23206;SDS011;11773;52.570;13.052;2022-12-07T12:07:26;1.87;;;1.77;;
23206;SDS011;11773;52.570;13.052;2022-12-07T12:10:03;1.47;;;1.20;;
23206;SDS011;11773;52.570;13.052;2022-12-07T12:12:52;1.53;;;1.20;;
23206;SDS011;11773;52.570;13.052;2022-12-07T12:15:36;1.63;;;1.33;;
23206;SDS011;11773;52.570;13.052;2022-12-07T12:20:56;1.00;;;0.90;;
23206;SDS011;11773;52.570;13.052;2022-12-07T12:23:37;1.47;;;1.27;;
23206;SDS011;11773;52.570;13.052;2022-12-07T12:26:20;1.20;;;0.93;;
23206;SDS011;11773;52.570;13.052;2022-12-07T12:28:54;1.03;;;0.93;;
23206;SDS011;11773;52.570;13.052;2022-12-07T12:42:50;0.90;;;0.90;;
23206;SDS011;11773;52.570;13.052;2022-12-07T12:45:24;1.73;;;1.03;;
23206;SDS011;11773;52.570;13.052;2022-12-07T12:48:00;1.93;;;1.03;;
23206;SDS011;11773;52.570;13.052;2022-12-07T12:50:49;1.40;;;1.07;;
23206;SDS011;11773;52.570;13.052;2022-12-07T12:53:21;1.07;;;0.97;;
23206;SDS011;11773;52.570;13.052;2022-12-07T12:56:11;0.80;;;0.80;;
23206;SDS011;11773;52.570;13.052;2022-12-07T13:04:57;0.80;;;0.80;;
23206;SDS011;11773;52.570;13.052;2022-12-07T13:15:46;0.50;;;0.50;;
23206;SDS011;11773;52.570;13.052;2022-12-07T13:29:18;0.60;;;0.60;;
23206;SDS011;11773;52.570;13.052;2022-12-07T13:31:54;0.50;;;0.40;;
23206;SDS011;11773;52.570;13.052;2022-12-07T13:34:31;1.07;;;0.50;;
23206;SDS011;11773;52.570;13.052;2022-12-07T13:37:47;1.17;;;0.50;;
23206;SDS011;11773;52.570;13.052;2022-12-07T13:39:47;0.73;;;0.53;;
23206;SDS011;11773;52.570;13.052;2022-12-07T13:48:13;0.50;;;0.50;;
23206;SDS011;11773;52.570;13.052;2022-12-07T13:50:53;0.50;;;0.50;;
23206;SDS011;11773;52.570;13.052;2022-12-07T13:53:25;0.73;;;0.70;;
23206;SDS011;11773;52.570;13.052;2022-12-07T13:55:58;0.60;;;0.60;;
23206;SDS011;11773;52.570;13.052;2022-12-07T13:58:30;0.60;;;0.60;;
23206;SDS011;11773;52.570;13.052;2022-12-07T14:01:01;0.70;;;0.70;;
23206;SDS011;11773;52.570;13.052;2022-12-07T14:03:36;0.70;;;0.70;;
23206;SDS011;11773;52.570;13.052;2022-12-07T14:06:17;0.67;;;0.67;;
23206;SDS011;11773;52.570;13.052;2022-12-07T14:08:49;0.63;;;0.53;;
23206;SDS011;11773;52.570;13.052;2022-12-07T14:11:20;1.10;;;0.87;;
23206;SDS011;11773;52.570;13.052;2022-12-07T14:13:51;0.70;;;0.70;;
23206;SDS011;11773;52.570;13.052;2022-12-07T14:16:34;0.90;;;0.70;;
23206;SDS011;11773;52.570;13.052;2022-12-07T14:19:37;0.50;;;0.50;;
23206;SDS011;11773;52.570;13.052;2022-12-07T14:22:20;1.00;;;0.60;;
23206;SDS011;11773;52.570;13.052;2022-12-07T14:27:57;0.40;;;0.40;;
23206;SDS011;11773;52.570;13.052;2022-12-07T14:30:33;0.90;;;0.80;;
23206;SDS011;11773;52.570;13.052;2022-12-07T14:33:03;0.97;;;0.80;;
23206;SDS011;11773;52.570;13.052;2022-12-07T14:35:34;0.50;;;0.50;;
23206;SDS011;11773;52.570;13.052;2022-12-07T14:38:07;1.53;;;0.70;;
23206;SDS011;11773;52.570;13.052;2022-12-07T14:40:36;1.55;;;0.60;;
23206;SDS011;11773;52.570;13.052;2022-12-07T14:43:14;1.27;;;0.67;;
23206;SDS011;11773;52.570;13.052;2022-12-07T14:45:46;1.17;;;0.90;;
23206;SDS011;11773;52.570;13.052;2022-12-07T14:48:15;0.70;;;0.67;;
23206;SDS011;11773;52.570;13.052;2022-12-07T14:50:51;0.60;;;0.60;;
23206;SDS011;11773;52.570;13.052;2022-12-07T14:53:26;1.00;;;0.60;;
23206;SDS011;11773;52.570;13.052;2022-12-07T14:55:58;0.57;;;0.50;;
23206;SDS011;11773;52.570;13.052;2022-12-07T14:58:27;2.17;;;0.80;;
23206;SDS011;11773;52.570;13.052;2022-12-07T15:00:57;0.90;;;0.80;;
23206;SDS011;11773;52.570;13.052;2022-12-07T15:03:27;1.03;;;0.60;;
23206;SDS011;11773;52.570;13.052;2022-12-07T15:05:57;0.50;;;0.47;;
23206;SDS011;11773;52.570;13.052;2022-12-07T15:08:26;1.17;;;0.60;;
23206;SDS011;11773;52.570;13.052;2022-12-07T15:10:56;0.50;;;0.50;;
23206;SDS011;11773;52.570;13.052;2022-12-07T15:13:26;1.03;;;0.47;;
23206;SDS011;11773;52.570;13.052;2022-12-07T15:16:13;1.50;;;0.87;;
23206;SDS011;11773;52.570;13.052;2022-12-07T15:18:48;0.57;;;0.57;;
23206;SDS011;11773;52.570;13.052;2022-12-07T15:21:20;0.77;;;0.53;;
23206;SDS011;11773;52.570;13.052;2022-12-07T15:23:49;0.70;;;0.70;;
23206;SDS011;11773;52.570;13.052;2022-12-07T15:26:19;0.40;;;0.40;;
23206;SDS011;11773;52.570;13.052;2022-12-07T15:31:40;0.30;;;0.30;;
23206;SDS011;11773;52.570;13.052;2022-12-07T15:34:12;0.50;;;0.50;;
23206;SDS011;11773;52.570;13.052;2022-12-07T15:36:41;0.50;;;0.40;;
23206;SDS011;11773;52.570;13.052;2022-12-07T15:39:11;0.97;;;0.70;;
23206;SDS011;11773;52.570;13.052;2022-12-07T15:41:41;0.60;;;0.53;;
23206;SDS011;11773;52.570;13.052;2022-12-07T15:44:14;0.97;;;0.60;;
23206;SDS011;11773;52.570;13.052;2022-12-07T15:47:02;0.63;;;0.63;;
23206;SDS011;11773;52.570;13.052;2022-12-07T15:49:33;0.67;;;0.67;;
23206;SDS011;11773;52.570;13.052;2022-12-07T15:52:03;0.60;;;0.60;;
23206;SDS011;11773;52.570;13.052;2022-12-07T15:54:32;1.17;;;0.77;;
23206;SDS011;11773;52.570;13.052;2022-12-07T15:57:02;0.77;;;0.60;;
23206;SDS011;11773;52.570;13.052;2022-12-07T15:59:31;0.83;;;0.60;;
23206;SDS011;11773;52.570;13.052;2022-12-07T16:02:01;0.60;;;0.60;;
23206;SDS011;11773;52.570;13.052;2022-12-07T16:04:30;0.83;;;0.70;;
23206;SDS011;11773;52.570;13.052;2022-12-07T16:07:01;2.27;;;1.00;;
23206;SDS011;11773;52.570;13.052;2022-12-07T16:09:31;0.80;;;0.80;;
23206;SDS011;11773;52.570;13.052;2022-12-07T16:12:00;0.70;;;0.60;;
23206;SDS011;11773;52.570;13.052;2022-12-07T16:14:30;0.80;;;0.40;;
23206;SDS011;11773;52.570;13.052;2022-12-07T16:17:00;0.60;;;0.60;;
23206;SDS011;11773;52.570;13.052;2022-12-07T16:19:31;1.00;;;0.70;;
23206;SDS011;11773;52.570;13.052;2022-12-07T16:22:01;0.90;;;0.80;;
23206;SDS011;11773;52.570;13.052;2022-12-07T16:24:31;0.43;;;0.40;;
23206;SDS011;11773;52.570;13.052;2022-12-07T16:27:01;1.17;;;0.70;;
23206;SDS011;11773;52.570;13.052;2022-12-07T16:29:31;0.90;;;0.67;;
23206;SDS011;11773;52.570;13.052;2022-12-07T16:32:00;0.40;;;0.40;;
23206;SDS011;11773;52.570;13.052;2022-12-07T16:34:30;0.60;;;0.60;;
23206;SDS011;11773;52.570;13.052;2022-12-07T16:36:59;0.63;;;0.63;;
23206;SDS011;11773;52.570;13.052;2022-12-07T16:39:31;0.50;;;0.50;;
23206;SDS011;11773;52.570;13.052;2022-12-07T16:42:01;1.27;;;0.40;;
23206;SDS011;11773;52.570;13.052;2022-12-07T16:44:31;0.50;;;0.50;;
23206;SDS011;11773;52.570;13.052;2022-12-07T16:47:00;0.77;;;0.60;;
23206;SDS011;11773;52.570;13.052;2022-12-07T16:49:30;0.50;;;0.50;;
23206;SDS011;11773;52.570;13.052;2022-12-07T16:51:59;1.10;;;0.60;;
23206;SDS011;11773;52.570;13.052;2022-12-07T16:54:30;0.67;;;0.67;;
23206;SDS011;11773;52.570;13.052;2022-12-07T16:57:01;0.60;;;0.60;;